sensor_id;sensor_type;location;lat;lon;timestamp;P1;durP1;ratioP1;P2;durP2;ratioP2
12665;SDS011;58531;59.050;17.416;2022-08-21T00:01:43;3.90;;;1.90;;
12665;SDS011;58531;59.050;17.416;2022-08-21T00:04:10;4.60;;;1.67;;
12665;SDS011;58531;59.050;17.416;2022-08-21T00:06:37;3.33;;;1.90;;
12665;SDS011;58531;59.050;17.416;2022-08-21T00:09:05;4.83;;;1.73;;
12665;SDS011;58531;59.050;17.416;2022-08-21T00:11:36;3.80;;;1.87;;
12665;SDS011;58531;59.050;17.416;2022-08-21T00:14:04;2.97;;;1.83;;
12665;SDS011;58531;59.050;17.416;2022-08-21T00:16:33;5.73;;;2.00;;
12665;SDS011;58531;59.050;17.416;2022-08-21T00:19:00;5.00;;;2.03;;
12665;SDS011;58531;59.050;17.416;2022-08-21T00:21:26;5.10;;;2.00;;
12665;SDS011;58531;59.050;17.416;2022-08-21T00:23:53;3.80;;;2.20;;
12665;SDS011;58531;59.050;17.416;2022-08-21T00:26:20;4.53;;;2.10;;
12665;SDS011;58531;59.050;17.416;2022-08-21T00:28:48;4.93;;;2.17;;
12665;SDS011;58531;59.050;17.416;2022-08-21T00:31:16;3.53;;;2.07;;
12665;SDS011;58531;59.050;17.416;2022-08-21T00:33:43;7.13;;;2.50;;
12665;SDS011;58531;59.050;17.416;2022-08-21T00:36:10;4.57;;;1.93;;
12665;SDS011;58531;59.050;17.416;2022-08-21T00:38:37;4.73;;;2.30;;
12665;SDS011;58531;59.050;17.416;2022-08-21T00:41:05;4.87;;;2.10;;
12665;SDS011;58531;59.050;17.416;2022-08-21T00:43:35;4.63;;;2.20;;
12665;SDS011;58531;59.050;17.416;2022-08-21T00:46:04;3.37;;;2.17;;
12665;SDS011;58531;59.050;17.416;2022-08-21T00:48:32;3.43;;;1.90;;
12665;SDS011;58531;59.050;17.416;2022-08-21T00:51:02;5.07;;;2.27;;
12665;SDS011;58531;59.050;17.416;2022-08-21T00:53:33;6.57;;;1.90;;
12665;SDS011;58531;59.050;17.416;2022-08-21T00:56:04;6.80;;;2.20;;
12665;SDS011;58531;59.050;17.416;2022-08-21T00:58:31;8.87;;;2.43;;
12665;SDS011;58531;59.050;17.416;2022-08-21T01:01:01;3.57;;;1.90;;
12665;SDS011;58531;59.050;17.416;2022-08-21T01:03:30;6.67;;;2.30;;
12665;SDS011;58531;59.050;17.416;2022-08-21T01:05:58;5.90;;;2.37;;
12665;SDS011;58531;59.050;17.416;2022-08-21T01:08:25;3.73;;;2.00;;
12665;SDS011;58531;59.050;17.416;2022-08-21T01:10:54;7.50;;;3.03;;
12665;SDS011;58531;59.050;17.416;2022-08-21T01:13:22;5.33;;;2.70;;
12665;SDS011;58531;59.050;17.416;2022-08-21T01:15:51;6.03;;;2.27;;
12665;SDS011;58531;59.050;17.416;2022-08-21T01:18:20;5.83;;;2.30;;
12665;SDS011;58531;59.050;17.416;2022-08-21T01:21:00;4.17;;;2.40;;
12665;SDS011;58531;59.050;17.416;2022-08-21T01:23:29;3.67;;;2.63;;
12665;SDS011;58531;59.050;17.416;2022-08-21T01:25:57;5.13;;;2.23;;
12665;SDS011;58531;59.050;17.416;2022-08-21T01:28:24;7.43;;;2.60;;
12665;SDS011;58531;59.050;17.416;2022-08-21T01:30:51;4.47;;;2.57;;
12665;SDS011;58531;59.050;17.416;2022-08-21T01:33:19;8.50;;;3.10;;
12665;SDS011;58531;59.050;17.416;2022-08-21T01:35:48;8.07;;;2.90;;
12665;SDS011;58531;59.050;17.416;2022-08-21T01:38:16;6.37;;;2.67;;
12665;SDS011;58531;59.050;17.416;2022-08-21T01:40:43;9.07;;;2.90;;
12665;SDS011;58531;59.050;17.416;2022-08-21T01:43:10;11.10;;;3.03;;
12665;SDS011;58531;59.050;17.416;2022-08-21T01:45:36;5.07;;;2.90;;
12665;SDS011;58531;59.050;17.416;2022-08-21T01:48:03;4.63;;;2.73;;
12665;SDS011;58531;59.050;17.416;2022-08-21T01:50:31;7.37;;;3.40;;
12665;SDS011;58531;59.050;17.416;2022-08-21T01:52:58;9.00;;;2.80;;
12665;SDS011;58531;59.050;17.416;2022-08-21T01:55:26;4.57;;;2.80;;
12665;SDS011;58531;59.050;17.416;2022-08-21T01:57:53;4.47;;;2.73;;
12665;SDS011;58531;59.050;17.416;2022-08-21T02:00:21;7.13;;;2.80;;
12665;SDS011;58531;59.050;17.416;2022-08-21T02:02:49;5.33;;;2.87;;
12665;SDS011;58531;59.050;17.416;2022-08-21T02:05:16;5.37;;;2.70;;
12665;SDS011;58531;59.050;17.416;2022-08-21T02:07:44;6.17;;;3.50;;
12665;SDS011;58531;59.050;17.416;2022-08-21T02:10:15;4.93;;;2.80;;
12665;SDS011;58531;59.050;17.416;2022-08-21T02:12:45;5.43;;;2.80;;
12665;SDS011;58531;59.050;17.416;2022-08-21T02:15:12;4.30;;;2.67;;
12665;SDS011;58531;59.050;17.416;2022-08-21T02:17:40;7.07;;;3.20;;
12665;SDS011;58531;59.050;17.416;2022-08-21T02:20:09;5.10;;;3.00;;
12665;SDS011;58531;59.050;17.416;2022-08-21T02:22:37;3.83;;;2.77;;
12665;SDS011;58531;59.050;17.416;2022-08-21T02:25:04;6.70;;;3.20;;
12665;SDS011;58531;59.050;17.416;2022-08-21T02:27:37;7.63;;;3.27;;
12665;SDS011;58531;59.050;17.416;2022-08-21T02:30:07;4.27;;;3.23;;
12665;SDS011;58531;59.050;17.416;2022-08-21T02:32:36;7.90;;;3.20;;
12665;SDS011;58531;59.050;17.416;2022-08-21T02:35:03;6.20;;;3.37;;
12665;SDS011;58531;59.050;17.416;2022-08-21T02:37:31;6.73;;;3.07;;
12665;SDS011;58531;59.050;17.416;2022-08-21T02:39:58;7.37;;;2.80;;
12665;SDS011;58531;59.050;17.416;2022-08-21T02:42:26;4.80;;;2.67;;
12665;SDS011;58531;59.050;17.416;2022-08-21T02:44:52;5.80;;;2.93;;
12665;SDS011;58531;59.050;17.416;2022-08-21T02:47:20;6.17;;;2.80;;
12665;SDS011;58531;59.050;17.416;2022-08-21T02:49:47;7.37;;;3.27;;
12665;SDS011;58531;59.050;17.416;2022-08-21T02:52:14;7.13;;;3.07;;
12665;SDS011;58531;59.050;17.416;2022-08-21T02:54:41;6.93;;;2.83;;
12665;SDS011;58531;59.050;17.416;2022-08-21T02:57:07;7.07;;;2.80;;
12665;SDS011;58531;59.050;17.416;2022-08-21T02:59:34;5.70;;;3.27;;
12665;SDS011;58531;59.050;17.416;2022-08-21T03:02:01;9.70;;;2.80;;
12665;SDS011;58531;59.050;17.416;2022-08-21T03:04:29;9.33;;;2.60;;
12665;SDS011;58531;59.050;17.416;2022-08-21T03:06:55;6.13;;;2.90;;
12665;SDS011;58531;59.050;17.416;2022-08-21T03:09:22;6.30;;;3.03;;
12665;SDS011;58531;59.050;17.416;2022-08-21T03:11:49;4.53;;;2.70;;
12665;SDS011;58531;59.050;17.416;2022-08-21T03:14:16;10.40;;;2.80;;
12665;SDS011;58531;59.050;17.416;2022-08-21T03:16:43;6.73;;;3.10;;
12665;SDS011;58531;59.050;17.416;2022-08-21T03:19:09;6.37;;;2.77;;
12665;SDS011;58531;59.050;17.416;2022-08-21T03:21:38;9.90;;;2.87;;
12665;SDS011;58531;59.050;17.416;2022-08-21T03:24:05;5.93;;;2.93;;
12665;SDS011;58531;59.050;17.416;2022-08-21T03:26:34;4.87;;;2.80;;
12665;SDS011;58531;59.050;17.416;2022-08-21T03:29:01;3.77;;;2.50;;
12665;SDS011;58531;59.050;17.416;2022-08-21T03:31:28;5.20;;;2.30;;
12665;SDS011;58531;59.050;17.416;2022-08-21T03:33:56;4.80;;;2.67;;
12665;SDS011;58531;59.050;17.416;2022-08-21T03:36:23;5.47;;;2.90;;
12665;SDS011;58531;59.050;17.416;2022-08-21T03:38:52;6.53;;;2.43;;
12665;SDS011;58531;59.050;17.416;2022-08-21T03:41:21;8.67;;;2.80;;
12665;SDS011;58531;59.050;17.416;2022-08-21T03:43:50;6.80;;;3.17;;
12665;SDS011;58531;59.050;17.416;2022-08-21T03:46:19;6.60;;;2.90;;
12665;SDS011;58531;59.050;17.416;2022-08-21T03:48:46;5.80;;;2.47;;
12665;SDS011;58531;59.050;17.416;2022-08-21T03:51:13;4.73;;;2.53;;
12665;SDS011;58531;59.050;17.416;2022-08-21T03:53:40;8.13;;;2.80;;
12665;SDS011;58531;59.050;17.416;2022-08-21T03:56:08;8.17;;;2.80;;
12665;SDS011;58531;59.050;17.416;2022-08-21T03:58:35;6.73;;;2.57;;
12665;SDS011;58531;59.050;17.416;2022-08-21T04:01:03;4.93;;;2.27;;
12665;SDS011;58531;59.050;17.416;2022-08-21T04:03:32;3.30;;;2.60;;
12665;SDS011;58531;59.050;17.416;2022-08-21T04:06:01;7.57;;;2.90;;
12665;SDS011;58531;59.050;17.416;2022-08-21T04:08:28;7.53;;;3.17;;
12665;SDS011;58531;59.050;17.416;2022-08-21T04:10:55;4.33;;;2.90;;
12665;SDS011;58531;59.050;17.416;2022-08-21T04:13:25;9.57;;;3.10;;
12665;SDS011;58531;59.050;17.416;2022-08-21T04:15:53;6.27;;;2.73;;
12665;SDS011;58531;59.050;17.416;2022-08-21T04:18:19;5.87;;;2.93;;
12665;SDS011;58531;59.050;17.416;2022-08-21T04:20:49;8.10;;;2.97;;
12665;SDS011;58531;59.050;17.416;2022-08-21T04:23:18;6.30;;;2.60;;
12665;SDS011;58531;59.050;17.416;2022-08-21T04:25:45;8.63;;;3.13;;
12665;SDS011;58531;59.050;17.416;2022-08-21T04:28:12;5.23;;;2.53;;
12665;SDS011;58531;59.050;17.416;2022-08-21T04:30:40;4.67;;;2.93;;
12665;SDS011;58531;59.050;17.416;2022-08-21T04:33:07;4.83;;;3.33;;
12665;SDS011;58531;59.050;17.416;2022-08-21T04:35:34;5.60;;;2.73;;
12665;SDS011;58531;59.050;17.416;2022-08-21T04:38:01;5.63;;;2.90;;
12665;SDS011;58531;59.050;17.416;2022-08-21T04:40:27;10.13;;;3.27;;
12665;SDS011;58531;59.050;17.416;2022-08-21T04:42:55;5.57;;;3.20;;
12665;SDS011;58531;59.050;17.416;2022-08-21T04:45:25;3.90;;;2.60;;
12665;SDS011;58531;59.050;17.416;2022-08-21T04:47:56;8.00;;;2.73;;
12665;SDS011;58531;59.050;17.416;2022-08-21T04:50:25;5.20;;;2.97;;
12665;SDS011;58531;59.050;17.416;2022-08-21T04:52:56;4.77;;;2.17;;
12665;SDS011;58531;59.050;17.416;2022-08-21T04:55:23;5.83;;;2.40;;
12665;SDS011;58531;59.050;17.416;2022-08-21T04:57:52;7.27;;;2.67;;
12665;SDS011;58531;59.050;17.416;2022-08-21T05:00:19;5.97;;;2.83;;
12665;SDS011;58531;59.050;17.416;2022-08-21T05:02:46;5.27;;;2.50;;
12665;SDS011;58531;59.050;17.416;2022-08-21T05:05:18;7.23;;;2.00;;
12665;SDS011;58531;59.050;17.416;2022-08-21T05:07:45;3.60;;;2.17;;
12665;SDS011;58531;59.050;17.416;2022-08-21T05:10:13;6.27;;;1.80;;
12665;SDS011;58531;59.050;17.416;2022-08-21T05:12:40;3.23;;;1.60;;
12665;SDS011;58531;59.050;17.416;2022-08-21T05:15:08;6.13;;;1.90;;
12665;SDS011;58531;59.050;17.416;2022-08-21T05:17:36;7.97;;;2.00;;
12665;SDS011;58531;59.050;17.416;2022-08-21T05:20:04;6.70;;;1.70;;
12665;SDS011;58531;59.050;17.416;2022-08-21T05:22:32;5.60;;;2.20;;
12665;SDS011;58531;59.050;17.416;2022-08-21T05:24:59;4.70;;;2.07;;
12665;SDS011;58531;59.050;17.416;2022-08-21T05:27:26;4.93;;;2.03;;
12665;SDS011;58531;59.050;17.416;2022-08-21T05:29:54;4.97;;;1.93;;
12665;SDS011;58531;59.050;17.416;2022-08-21T05:32:21;6.67;;;1.87;;
12665;SDS011;58531;59.050;17.416;2022-08-21T05:34:49;6.10;;;1.87;;
12665;SDS011;58531;59.050;17.416;2022-08-21T05:37:16;4.97;;;1.87;;
12665;SDS011;58531;59.050;17.416;2022-08-21T05:39:44;3.73;;;1.90;;
12665;SDS011;58531;59.050;17.416;2022-08-21T05:42:11;7.70;;;2.20;;
12665;SDS011;58531;59.050;17.416;2022-08-21T05:44:38;5.03;;;2.03;;
12665;SDS011;58531;59.050;17.416;2022-08-21T05:47:04;3.53;;;1.80;;
12665;SDS011;58531;59.050;17.416;2022-08-21T05:49:34;3.03;;;1.60;;
12665;SDS011;58531;59.050;17.416;2022-08-21T05:52:02;5.27;;;1.57;;
12665;SDS011;58531;59.050;17.416;2022-08-21T05:54:29;5.67;;;1.70;;
12665;SDS011;58531;59.050;17.416;2022-08-21T05:56:58;5.60;;;1.70;;
12665;SDS011;58531;59.050;17.416;2022-08-21T05:59:24;6.50;;;1.73;;
12665;SDS011;58531;59.050;17.416;2022-08-21T06:01:52;5.80;;;2.07;;
12665;SDS011;58531;59.050;17.416;2022-08-21T06:04:19;3.87;;;1.77;;
12665;SDS011;58531;59.050;17.416;2022-08-21T06:06:46;5.43;;;2.17;;
12665;SDS011;58531;59.050;17.416;2022-08-21T06:09:13;5.40;;;1.63;;
12665;SDS011;58531;59.050;17.416;2022-08-21T06:11:40;6.80;;;2.00;;
12665;SDS011;58531;59.050;17.416;2022-08-21T06:14:08;4.53;;;1.77;;
12665;SDS011;58531;59.050;17.416;2022-08-21T06:16:35;2.90;;;1.73;;
12665;SDS011;58531;59.050;17.416;2022-08-21T06:19:01;4.87;;;1.77;;
12665;SDS011;58531;59.050;17.416;2022-08-21T06:21:28;3.97;;;1.77;;
12665;SDS011;58531;59.050;17.416;2022-08-21T06:23:55;4.43;;;1.43;;
12665;SDS011;58531;59.050;17.416;2022-08-21T06:26:21;8.03;;;2.00;;
12665;SDS011;58531;59.050;17.416;2022-08-21T06:28:48;6.63;;;1.67;;
12665;SDS011;58531;59.050;17.416;2022-08-21T06:31:18;5.50;;;2.20;;
12665;SDS011;58531;59.050;17.416;2022-08-21T06:33:48;5.13;;;1.70;;
12665;SDS011;58531;59.050;17.416;2022-08-21T06:36:15;2.90;;;1.70;;
12665;SDS011;58531;59.050;17.416;2022-08-21T06:38:42;5.53;;;1.80;;
12665;SDS011;58531;59.050;17.416;2022-08-21T06:41:10;4.07;;;1.77;;
12665;SDS011;58531;59.050;17.416;2022-08-21T06:43:36;5.77;;;2.10;;
12665;SDS011;58531;59.050;17.416;2022-08-21T06:46:03;4.33;;;1.67;;
12665;SDS011;58531;59.050;17.416;2022-08-21T06:48:31;5.30;;;1.77;;
12665;SDS011;58531;59.050;17.416;2022-08-21T06:50:59;6.17;;;2.10;;
12665;SDS011;58531;59.050;17.416;2022-08-21T06:53:26;4.17;;;1.57;;
12665;SDS011;58531;59.050;17.416;2022-08-21T06:55:52;4.67;;;1.70;;
12665;SDS011;58531;59.050;17.416;2022-08-21T06:58:21;6.50;;;1.93;;
12665;SDS011;58531;59.050;17.416;2022-08-21T07:00:48;6.33;;;1.90;;
12665;SDS011;58531;59.050;17.416;2022-08-21T07:03:18;5.27;;;1.87;;
12665;SDS011;58531;59.050;17.416;2022-08-21T07:05:49;4.10;;;1.53;;
12665;SDS011;58531;59.050;17.416;2022-08-21T07:08:16;2.77;;;1.40;;
12665;SDS011;58531;59.050;17.416;2022-08-21T07:10:43;5.23;;;2.00;;
12665;SDS011;58531;59.050;17.416;2022-08-21T07:13:10;4.43;;;1.93;;
12665;SDS011;58531;59.050;17.416;2022-08-21T07:15:37;7.37;;;2.07;;
12665;SDS011;58531;59.050;17.416;2022-08-21T07:18:03;4.87;;;1.90;;
12665;SDS011;58531;59.050;17.416;2022-08-21T07:20:31;6.63;;;2.10;;
12665;SDS011;58531;59.050;17.416;2022-08-21T07:23:01;5.10;;;1.90;;
12665;SDS011;58531;59.050;17.416;2022-08-21T07:25:29;5.67;;;2.03;;
12665;SDS011;58531;59.050;17.416;2022-08-21T07:27:57;5.37;;;2.00;;
12665;SDS011;58531;59.050;17.416;2022-08-21T07:30:23;5.93;;;2.23;;
12665;SDS011;58531;59.050;17.416;2022-08-21T07:32:51;5.80;;;2.67;;
12665;SDS011;58531;59.050;17.416;2022-08-21T07:35:18;4.10;;;1.30;;
12665;SDS011;58531;59.050;17.416;2022-08-21T07:37:45;6.70;;;2.00;;
12665;SDS011;58531;59.050;17.416;2022-08-21T07:40:14;4.60;;;1.73;;
12665;SDS011;58531;59.050;17.416;2022-08-21T07:42:42;5.87;;;1.97;;
12665;SDS011;58531;59.050;17.416;2022-08-21T07:45:10;5.47;;;1.90;;
12665;SDS011;58531;59.050;17.416;2022-08-21T07:47:38;4.93;;;1.73;;
12665;SDS011;58531;59.050;17.416;2022-08-21T07:50:05;4.73;;;1.73;;
12665;SDS011;58531;59.050;17.416;2022-08-21T07:52:32;4.77;;;1.90;;
12665;SDS011;58531;59.050;17.416;2022-08-21T07:54:59;3.90;;;1.50;;
12665;SDS011;58531;59.050;17.416;2022-08-21T07:57:28;5.40;;;1.73;;
12665;SDS011;58531;59.050;17.416;2022-08-21T07:59:54;4.30;;;1.67;;
12665;SDS011;58531;59.050;17.416;2022-08-21T08:02:22;4.47;;;2.00;;
12665;SDS011;58531;59.050;17.416;2022-08-21T08:04:49;5.03;;;1.73;;
12665;SDS011;58531;59.050;17.416;2022-08-21T08:07:16;5.13;;;1.57;;
12665;SDS011;58531;59.050;17.416;2022-08-21T08:09:43;5.27;;;2.13;;
12665;SDS011;58531;59.050;17.416;2022-08-21T08:12:10;3.77;;;1.60;;
12665;SDS011;58531;59.050;17.416;2022-08-21T08:14:38;3.93;;;1.60;;
12665;SDS011;58531;59.050;17.416;2022-08-21T08:17:05;4.80;;;1.80;;
12665;SDS011;58531;59.050;17.416;2022-08-21T08:19:31;4.83;;;1.80;;
12665;SDS011;58531;59.050;17.416;2022-08-21T08:21:58;4.03;;;1.60;;
12665;SDS011;58531;59.050;17.416;2022-08-21T08:24:25;5.43;;;1.73;;
12665;SDS011;58531;59.050;17.416;2022-08-21T08:26:51;5.63;;;2.13;;
12665;SDS011;58531;59.050;17.416;2022-08-21T08:29:19;4.87;;;1.67;;
12665;SDS011;58531;59.050;17.416;2022-08-21T08:31:47;5.47;;;1.60;;
12665;SDS011;58531;59.050;17.416;2022-08-21T08:34:14;2.77;;;1.43;;
12665;SDS011;58531;59.050;17.416;2022-08-21T08:36:40;3.13;;;1.43;;
12665;SDS011;58531;59.050;17.416;2022-08-21T08:39:07;5.27;;;1.50;;
12665;SDS011;58531;59.050;17.416;2022-08-21T08:41:34;4.87;;;1.70;;
12665;SDS011;58531;59.050;17.416;2022-08-21T08:44:03;3.00;;;1.73;;
12665;SDS011;58531;59.050;17.416;2022-08-21T08:46:34;4.90;;;1.93;;
12665;SDS011;58531;59.050;17.416;2022-08-21T08:49:08;4.10;;;1.70;;
12665;SDS011;58531;59.050;17.416;2022-08-21T08:51:39;2.90;;;1.50;;
12665;SDS011;58531;59.050;17.416;2022-08-21T08:54:11;4.23;;;1.70;;
12665;SDS011;58531;59.050;17.416;2022-08-21T08:56:44;4.17;;;1.80;;
12665;SDS011;58531;59.050;17.416;2022-08-21T08:59:14;3.27;;;1.60;;
12665;SDS011;58531;59.050;17.416;2022-08-21T09:01:44;4.23;;;1.80;;
12665;SDS011;58531;59.050;17.416;2022-08-21T09:04:12;4.83;;;2.13;;
12665;SDS011;58531;59.050;17.416;2022-08-21T09:06:56;4.17;;;1.40;;
12665;SDS011;58531;59.050;17.416;2022-08-21T09:09:34;2.60;;;1.47;;
12665;SDS011;58531;59.050;17.416;2022-08-21T09:12:12;4.37;;;1.70;;
12665;SDS011;58531;59.050;17.416;2022-08-21T09:14:47;5.77;;;1.50;;
12665;SDS011;58531;59.050;17.416;2022-08-21T09:17:26;5.60;;;2.00;;
12665;SDS011;58531;59.050;17.416;2022-08-21T09:20:11;3.87;;;1.60;;
12665;SDS011;58531;59.050;17.416;2022-08-21T09:22:54;3.07;;;1.67;;
12665;SDS011;58531;59.050;17.416;2022-08-21T09:25:30;4.60;;;1.80;;
12665;SDS011;58531;59.050;17.416;2022-08-21T09:27:59;5.57;;;1.90;;
12665;SDS011;58531;59.050;17.416;2022-08-21T09:30:28;2.23;;;1.40;;
12665;SDS011;58531;59.050;17.416;2022-08-21T09:32:57;4.50;;;1.63;;
12665;SDS011;58531;59.050;17.416;2022-08-21T09:35:25;5.33;;;1.70;;
12665;SDS011;58531;59.050;17.416;2022-08-21T09:37:54;3.33;;;1.70;;
12665;SDS011;58531;59.050;17.416;2022-08-21T09:40:27;3.00;;;1.23;;
12665;SDS011;58531;59.050;17.416;2022-08-21T09:42:57;3.13;;;1.70;;
12665;SDS011;58531;59.050;17.416;2022-08-21T09:45:26;4.40;;;1.30;;
12665;SDS011;58531;59.050;17.416;2022-08-21T09:47:53;3.23;;;1.60;;
12665;SDS011;58531;59.050;17.416;2022-08-21T09:50:21;8.10;;;1.87;;
12665;SDS011;58531;59.050;17.416;2022-08-21T09:52:54;2.97;;;1.43;;
12665;SDS011;58531;59.050;17.416;2022-08-21T09:55:28;3.13;;;1.50;;
12665;SDS011;58531;59.050;17.416;2022-08-21T09:58:15;2.30;;;1.30;;
12665;SDS011;58531;59.050;17.416;2022-08-21T10:00:43;1.90;;;1.33;;
12665;SDS011;58531;59.050;17.416;2022-08-21T10:03:11;2.03;;;1.13;;
12665;SDS011;58531;59.050;17.416;2022-08-21T10:05:50;3.57;;;1.53;;
12665;SDS011;58531;59.050;17.416;2022-08-21T10:08:28;4.87;;;1.67;;
12665;SDS011;58531;59.050;17.416;2022-08-21T10:11:01;4.37;;;1.27;;
12665;SDS011;58531;59.050;17.416;2022-08-21T10:13:40;2.80;;;1.50;;
12665;SDS011;58531;59.050;17.416;2022-08-21T10:16:23;4.77;;;1.20;;
12665;SDS011;58531;59.050;17.416;2022-08-21T10:19:01;2.90;;;1.20;;
12665;SDS011;58531;59.050;17.416;2022-08-21T10:21:37;2.20;;;1.10;;
12665;SDS011;58531;59.050;17.416;2022-08-21T10:24:14;2.27;;;1.37;;
12665;SDS011;58531;59.050;17.416;2022-08-21T10:26:53;2.03;;;1.20;;
12665;SDS011;58531;59.050;17.416;2022-08-21T10:29:39;1.77;;;1.27;;
12665;SDS011;58531;59.050;17.416;2022-08-21T10:32:14;3.73;;;1.20;;
12665;SDS011;58531;59.050;17.416;2022-08-21T10:34:56;2.97;;;1.20;;
12665;SDS011;58531;59.050;17.416;2022-08-21T10:37:31;2.80;;;1.30;;
12665;SDS011;58531;59.050;17.416;2022-08-21T10:40:16;2.63;;;1.23;;
12665;SDS011;58531;59.050;17.416;2022-08-21T10:42:55;1.87;;;1.07;;
12665;SDS011;58531;59.050;17.416;2022-08-21T10:45:37;3.47;;;1.17;;
12665;SDS011;58531;59.050;17.416;2022-08-21T10:48:13;1.37;;;1.10;;
12665;SDS011;58531;59.050;17.416;2022-08-21T10:50:48;3.53;;;1.10;;
12665;SDS011;58531;59.050;17.416;2022-08-21T10:53:27;3.43;;;1.20;;
12665;SDS011;58531;59.050;17.416;2022-08-21T10:56:05;1.37;;;0.90;;
12665;SDS011;58531;59.050;17.416;2022-08-21T10:58:40;3.03;;;1.47;;
12665;SDS011;58531;59.050;17.416;2022-08-21T11:01:13;2.27;;;1.20;;
12665;SDS011;58531;59.050;17.416;2022-08-21T11:03:45;2.13;;;1.00;;
12665;SDS011;58531;59.050;17.416;2022-08-21T11:06:18;1.50;;;1.00;;
12665;SDS011;58531;59.050;17.416;2022-08-21T11:08:49;1.67;;;1.13;;
12665;SDS011;58531;59.050;17.416;2022-08-21T11:11:24;3.17;;;1.10;;
12665;SDS011;58531;59.050;17.416;2022-08-21T11:13:54;2.27;;;1.00;;
12665;SDS011;58531;59.050;17.416;2022-08-21T11:16:25;2.27;;;1.00;;
12665;SDS011;58531;59.050;17.416;2022-08-21T11:19:00;1.97;;;0.80;;
12665;SDS011;58531;59.050;17.416;2022-08-21T11:21:33;1.53;;;1.00;;
12665;SDS011;58531;59.050;17.416;2022-08-21T11:24:17;2.23;;;1.20;;
12665;SDS011;58531;59.050;17.416;2022-08-21T11:26:59;3.23;;;1.00;;
12665;SDS011;58531;59.050;17.416;2022-08-21T11:29:29;2.57;;;1.20;;
12665;SDS011;58531;59.050;17.416;2022-08-21T11:32:08;2.97;;;1.27;;
12665;SDS011;58531;59.050;17.416;2022-08-21T11:34:58;1.20;;;0.90;;
12665;SDS011;58531;59.050;17.416;2022-08-21T11:37:37;1.73;;;0.90;;
12665;SDS011;58531;59.050;17.416;2022-08-21T11:40:34;1.50;;;1.07;;
12665;SDS011;58531;59.050;17.416;2022-08-21T11:43:16;2.17;;;1.20;;
12665;SDS011;58531;59.050;17.416;2022-08-21T11:45:49;1.73;;;1.33;;
12665;SDS011;58531;59.050;17.416;2022-08-21T11:48:22;2.40;;;1.00;;
12665;SDS011;58531;59.050;17.416;2022-08-21T11:51:04;1.70;;;0.90;;
12665;SDS011;58531;59.050;17.416;2022-08-21T11:53:35;2.43;;;1.00;;
12665;SDS011;58531;59.050;17.416;2022-08-21T11:56:07;4.83;;;1.30;;
12665;SDS011;58531;59.050;17.416;2022-08-21T11:58:43;1.23;;;0.90;;
12665;SDS011;58531;59.050;17.416;2022-08-21T12:01:16;2.83;;;1.10;;
12665;SDS011;58531;59.050;17.416;2022-08-21T12:03:51;2.20;;;1.00;;
12665;SDS011;58531;59.050;17.416;2022-08-21T12:06:27;2.67;;;1.03;;
12665;SDS011;58531;59.050;17.416;2022-08-21T12:08:57;2.07;;;1.00;;
12665;SDS011;58531;59.050;17.416;2022-08-21T12:11:26;2.13;;;1.10;;
12665;SDS011;58531;59.050;17.416;2022-08-21T12:13:55;1.73;;;1.10;;
12665;SDS011;58531;59.050;17.416;2022-08-21T12:16:31;4.67;;;1.10;;
12665;SDS011;58531;59.050;17.416;2022-08-21T12:19:04;2.33;;;1.30;;
12665;SDS011;58531;59.050;17.416;2022-08-21T12:21:33;2.00;;;1.13;;
12665;SDS011;58531;59.050;17.416;2022-08-21T12:24:16;1.90;;;0.97;;
12665;SDS011;58531;59.050;17.416;2022-08-21T12:26:50;2.27;;;1.23;;
12665;SDS011;58531;59.050;17.416;2022-08-21T12:29:24;2.37;;;1.10;;
12665;SDS011;58531;59.050;17.416;2022-08-21T12:31:55;1.67;;;1.00;;
12665;SDS011;58531;59.050;17.416;2022-08-21T12:34:25;1.20;;;0.90;;
12665;SDS011;58531;59.050;17.416;2022-08-21T12:36:59;1.70;;;1.00;;
12665;SDS011;58531;59.050;17.416;2022-08-21T12:39:29;1.70;;;1.10;;
12665;SDS011;58531;59.050;17.416;2022-08-21T12:41:59;1.77;;;1.20;;
12665;SDS011;58531;59.050;17.416;2022-08-21T12:44:34;1.70;;;1.00;;
12665;SDS011;58531;59.050;17.416;2022-08-21T12:47:11;2.80;;;1.17;;
12665;SDS011;58531;59.050;17.416;2022-08-21T12:49:43;2.33;;;1.20;;
12665;SDS011;58531;59.050;17.416;2022-08-21T12:52:19;2.30;;;1.10;;
12665;SDS011;58531;59.050;17.416;2022-08-21T12:54:48;3.93;;;1.30;;
12665;SDS011;58531;59.050;17.416;2022-08-21T12:57:19;2.13;;;1.20;;
12665;SDS011;58531;59.050;17.416;2022-08-21T12:59:52;3.63;;;1.37;;
12665;SDS011;58531;59.050;17.416;2022-08-21T13:02:22;2.17;;;1.10;;
12665;SDS011;58531;59.050;17.416;2022-08-21T13:04:51;2.27;;;1.10;;
12665;SDS011;58531;59.050;17.416;2022-08-21T13:07:22;1.73;;;1.20;;
12665;SDS011;58531;59.050;17.416;2022-08-21T13:09:53;1.77;;;1.27;;
12665;SDS011;58531;59.050;17.416;2022-08-21T13:12:23;2.37;;;1.10;;
12665;SDS011;58531;59.050;17.416;2022-08-21T13:14:54;2.37;;;1.03;;
12665;SDS011;58531;59.050;17.416;2022-08-21T13:17:23;2.10;;;1.00;;
12665;SDS011;58531;59.050;17.416;2022-08-21T13:19:54;1.90;;;0.87;;
12665;SDS011;58531;59.050;17.416;2022-08-21T13:22:23;2.13;;;0.90;;
12665;SDS011;58531;59.050;17.416;2022-08-21T13:24:51;3.20;;;0.90;;
12665;SDS011;58531;59.050;17.416;2022-08-21T13:27:21;3.23;;;0.93;;
12665;SDS011;58531;59.050;17.416;2022-08-21T13:30:07;3.47;;;1.00;;
12665;SDS011;58531;59.050;17.416;2022-08-21T13:32:38;1.47;;;0.90;;
12665;SDS011;58531;59.050;17.416;2022-08-21T13:35:11;2.63;;;0.90;;
12665;SDS011;58531;59.050;17.416;2022-08-21T13:37:41;1.40;;;0.97;;
12665;SDS011;58531;59.050;17.416;2022-08-21T13:40:10;0.97;;;0.80;;
12665;SDS011;58531;59.050;17.416;2022-08-21T13:42:40;2.07;;;0.87;;
12665;SDS011;58531;59.050;17.416;2022-08-21T13:45:21;1.50;;;0.80;;
12665;SDS011;58531;59.050;17.416;2022-08-21T13:47:51;2.90;;;1.10;;
12665;SDS011;58531;59.050;17.416;2022-08-21T13:50:18;1.10;;;1.00;;
12665;SDS011;58531;59.050;17.416;2022-08-21T13:52:49;1.67;;;0.93;;
12665;SDS011;58531;59.050;17.416;2022-08-21T13:55:22;2.10;;;0.90;;
12665;SDS011;58531;59.050;17.416;2022-08-21T13:57:58;3.00;;;0.87;;
12665;SDS011;58531;59.050;17.416;2022-08-21T14:00:29;1.83;;;0.83;;
12665;SDS011;58531;59.050;17.416;2022-08-21T14:03:00;2.77;;;1.10;;
12665;SDS011;58531;59.050;17.416;2022-08-21T14:05:30;2.67;;;1.00;;
12665;SDS011;58531;59.050;17.416;2022-08-21T14:08:02;1.30;;;1.00;;
12665;SDS011;58531;59.050;17.416;2022-08-21T14:10:34;1.40;;;0.87;;
12665;SDS011;58531;59.050;17.416;2022-08-21T14:13:03;1.43;;;1.00;;
12665;SDS011;58531;59.050;17.416;2022-08-21T14:15:34;2.27;;;1.20;;
12665;SDS011;58531;59.050;17.416;2022-08-21T14:18:09;1.60;;;0.90;;
12665;SDS011;58531;59.050;17.416;2022-08-21T14:20:40;1.40;;;0.83;;
12665;SDS011;58531;59.050;17.416;2022-08-21T14:23:06;0.90;;;0.80;;
12665;SDS011;58531;59.050;17.416;2022-08-21T14:25:37;1.73;;;1.00;;
12665;SDS011;58531;59.050;17.416;2022-08-21T14:28:11;2.20;;;0.90;;
12665;SDS011;58531;59.050;17.416;2022-08-21T14:30:46;1.40;;;0.90;;
12665;SDS011;58531;59.050;17.416;2022-08-21T14:33:16;3.17;;;1.00;;
12665;SDS011;58531;59.050;17.416;2022-08-21T14:35:49;2.30;;;1.20;;
12665;SDS011;58531;59.050;17.416;2022-08-21T14:38:17;2.17;;;1.07;;
12665;SDS011;58531;59.050;17.416;2022-08-21T14:40:47;2.97;;;1.10;;
12665;SDS011;58531;59.050;17.416;2022-08-21T14:43:17;1.53;;;1.07;;
12665;SDS011;58531;59.050;17.416;2022-08-21T14:45:46;1.80;;;1.07;;
12665;SDS011;58531;59.050;17.416;2022-08-21T14:48:13;1.87;;;0.80;;
12665;SDS011;58531;59.050;17.416;2022-08-21T14:50:40;2.00;;;1.43;;